createdAt,value
2018-11-29T00:00:37.773Z,42.97
2018-11-29T00:03:08.272Z,40.23
2018-11-29T00:05:37.359Z,41.07
2018-11-29T00:08:06.775Z,45.30
2018-11-29T00:10:35.746Z,43.17
2018-11-29T00:13:05.182Z,39.37
2018-11-29T00:15:34.435Z,41.77
2018-11-29T00:18:03.485Z,40.80
2018-11-29T00:20:32.987Z,39.83
2018-11-29T00:23:01.941Z,44.10
2018-11-29T00:25:30.822Z,40.50
2018-11-29T00:27:59.755Z,42.83
2018-11-29T00:30:28.591Z,42.53
2018-11-29T00:32:57.642Z,46.33
2018-11-29T00:35:26.542Z,44.80
2018-11-29T00:37:55.521Z,37.27
2018-11-29T00:40:24.607Z,39.63
2018-11-29T00:42:53.593Z,41.43
2018-11-29T00:45:24.147Z,45.63
2018-11-29T00:47:53.240Z,42.63
2018-11-29T00:50:22.320Z,43.10
2018-11-29T00:52:51.720Z,42.50
2018-11-29T00:55:22.673Z,41.57
2018-11-29T00:57:52.412Z,43.10
2018-11-29T01:00:23.702Z,38.30
2018-11-29T01:02:52.643Z,42.90
2018-11-29T01:05:21.632Z,41.20
2018-11-29T01:07:50.518Z,44.63
2018-11-29T01:10:19.761Z,41.33
2018-11-29T01:12:49.013Z,39.77
2018-11-29T01:15:20.168Z,42.23
2018-11-29T01:17:50.111Z,39.80
2018-11-29T01:20:21.070Z,39.73
2018-11-29T01:22:50.022Z,44.53
2018-11-29T01:25:19.007Z,38.27
2018-11-29T01:27:49.527Z,36.53
2018-11-29T01:30:19.793Z,42.80
2018-11-29T01:32:48.711Z,42.20
2018-11-29T01:35:19.305Z,45.57
2018-11-29T01:37:48.635Z,41.37
2018-11-29T01:40:22.144Z,45.57
2018-11-29T01:42:57.414Z,44.87
2018-11-29T01:45:26.844Z,41.10
2018-11-29T01:47:56.776Z,43.20
2018-11-29T01:50:25.674Z,41.43
2018-11-29T01:52:54.537Z,40.17
2018-11-29T01:55:23.491Z,43.57
2018-11-29T01:57:52.437Z,41.47
2018-11-29T02:00:21.429Z,42.80
2018-11-29T02:02:51.925Z,41.27
2018-11-29T02:05:20.863Z,42.97
2018-11-29T02:07:49.725Z,44.00
2018-11-29T02:10:27.281Z,46.07
2018-11-29T02:12:56.315Z,45.00
2018-11-29T02:15:25.326Z,44.47
2018-11-29T02:17:54.198Z,46.53
2018-11-29T02:20:23.440Z,44.60
2018-11-29T02:22:52.337Z,45.80
2018-11-29T02:25:21.522Z,48.77
2018-11-29T02:27:50.338Z,46.13
2018-11-29T02:30:23.669Z,43.87
2018-11-29T02:32:52.872Z,41.97
2018-11-29T02:35:21.886Z,42.97
2018-11-29T02:37:50.743Z,43.03
2018-11-29T02:40:19.873Z,42.97
2018-11-29T02:42:49.728Z,44.50
2018-11-29T02:45:23.630Z,43.33
2018-11-29T02:47:52.592Z,42.23
2018-11-29T02:50:21.440Z,42.43
2018-11-29T02:52:50.416Z,48.33
2018-11-29T02:55:19.292Z,42.53
2018-11-29T02:57:48.163Z,47.73
2018-11-29T03:00:18.965Z,42.93
2018-11-29T03:02:48.028Z,38.83
2018-11-29T03:05:17.540Z,46.23
2018-11-29T03:07:46.516Z,42.53
2018-11-29T03:10:20.224Z,41.60
2018-11-29T03:12:49.122Z,40.87
2018-11-29T03:15:17.974Z,43.07
2018-11-29T03:17:46.967Z,43.30
2018-11-29T03:20:15.834Z,42.90
2018-11-29T03:22:44.747Z,43.83
2018-11-29T03:25:15.296Z,43.53
2018-11-29T03:27:44.644Z,48.03
2018-11-29T03:30:17.468Z,42.33
2018-11-29T03:32:46.360Z,45.03
2018-11-29T03:35:15.827Z,48.37
2018-11-29T03:37:44.800Z,48.50
2018-11-29T03:40:15.243Z,46.17
2018-11-29T03:42:44.808Z,42.90
2018-11-29T03:45:15.672Z,40.23
2018-11-29T03:47:45.261Z,43.87
2018-11-29T03:50:17.901Z,45.80
2018-11-29T03:52:47.298Z,51.27
2018-11-29T03:55:16.180Z,47.67
2018-11-29T03:57:45.122Z,47.63
2018-11-29T04:00:16.243Z,52.03
2018-11-29T04:02:47.080Z,48.93
2018-11-29T04:05:16.222Z,48.87
2018-11-29T04:07:45.212Z,48.70
2018-11-29T04:10:15.444Z,44.10
2018-11-29T04:12:44.376Z,48.93
2018-11-29T04:15:14.589Z,41.13
2018-11-29T04:17:44.069Z,50.07
2018-11-29T04:20:15.236Z,48.03
2018-11-29T04:22:44.169Z,47.40
2018-11-29T04:25:14.295Z,52.60
2018-11-29T04:27:43.249Z,50.77
2018-11-29T04:30:13.864Z,52.73
2018-11-29T04:32:42.881Z,48.07
2018-11-29T04:35:12.280Z,39.53
2018-11-29T04:37:41.250Z,44.17
2018-11-29T04:40:14.662Z,46.10
2018-11-29T04:42:43.729Z,46.07
2018-11-29T04:45:17.004Z,44.73
2018-11-29T04:47:46.391Z,44.47
2018-11-29T04:50:16.483Z,47.63
2018-11-29T04:52:45.509Z,46.87
2018-11-29T04:55:14.748Z,44.67
2018-11-29T04:57:43.604Z,46.40
2018-11-29T05:00:15.317Z,54.90
2018-11-29T05:02:44.524Z,47.33
2018-11-29T05:05:13.994Z,46.57
2018-11-29T05:07:42.894Z,44.00
2018-11-29T05:10:16.009Z,46.17
2018-11-29T05:12:45.439Z,44.87
2018-11-29T05:15:14.434Z,44.10
2018-11-29T05:17:43.302Z,48.63
2018-11-29T05:20:12.203Z,45.30
2018-11-29T05:22:41.040Z,47.33
2018-11-29T05:25:09.950Z,41.87
2018-11-29T05:27:38.919Z,40.37
2018-11-29T05:30:13.215Z,46.17
2018-11-29T05:32:42.126Z,48.37
2018-11-29T05:35:12.109Z,51.83
2018-11-29T05:37:41.563Z,45.37
2018-11-29T05:40:12.323Z,43.83
2018-11-29T05:42:41.329Z,48.00
2018-11-29T05:45:11.064Z,50.67
2018-11-29T05:47:39.968Z,48.23
2018-11-29T05:50:10.763Z,56.07
2018-11-29T05:52:40.054Z,56.20
2018-11-29T05:55:11.059Z,55.33
2018-11-29T05:57:39.971Z,53.50
2018-11-29T06:00:13.175Z,52.87
2018-11-29T06:02:42.581Z,49.73
2018-11-29T06:05:13.376Z,51.57
2018-11-29T06:07:42.268Z,49.73
2018-11-29T06:10:11.169Z,50.93
2018-11-29T06:12:40.042Z,50.40
2018-11-29T06:15:11.692Z,51.17
2018-11-29T06:17:41.003Z,45.90
2018-11-29T06:20:12.543Z,50.13
2018-11-29T06:22:41.454Z,52.63
2018-11-29T06:25:10.696Z,47.90
2018-11-29T06:27:39.768Z,57.37
2018-11-29T06:30:17.017Z,53.57
2018-11-29T06:32:46.269Z,50.70
2018-11-29T06:35:15.241Z,51.37
2018-11-29T06:37:44.134Z,49.80
2018-11-29T06:40:14.299Z,51.27
2018-11-29T06:42:43.355Z,53.47
2018-11-29T06:45:17.698Z,51.10
2018-11-29T06:47:47.705Z,48.77
2018-11-29T06:50:16.719Z,50.23
2018-11-29T06:52:47.124Z,45.73
2018-11-29T06:55:20.549Z,49.40
2018-11-29T06:57:49.543Z,46.20
2018-11-29T07:00:35.775Z,50.37
2018-11-29T07:03:05.402Z,50.00
2018-11-29T07:05:34.368Z,47.80
2018-11-29T07:08:03.395Z,54.27
2018-11-29T07:10:35.048Z,48.60
2018-11-29T07:13:06.230Z,48.67
2018-11-29T07:15:35.131Z,51.00
2018-11-29T07:18:04.124Z,51.57
2018-11-29T07:20:33.098Z,50.30
2018-11-29T07:23:01.953Z,52.23
2018-11-29T07:25:30.830Z,48.83
2018-11-29T07:27:59.653Z,44.13
2018-11-29T07:30:28.696Z,49.60
2018-11-29T07:32:57.530Z,51.20
2018-11-29T07:35:26.440Z,48.53
2018-11-29T07:37:55.279Z,50.60
2018-11-29T07:40:24.158Z,50.67
2018-11-29T07:42:54.607Z,50.07
2018-11-29T07:45:24.001Z,45.27
2018-11-29T07:47:52.881Z,48.77
2018-11-29T07:50:22.958Z,50.73
2018-11-29T07:52:51.815Z,53.53
2018-11-29T07:55:21.726Z,49.60
2018-11-29T07:57:52.129Z,52.27
2018-11-29T08:00:21.174Z,57.83
2018-11-29T08:02:50.125Z,47.83
2018-11-29T08:05:19.011Z,49.03
2018-11-29T08:07:48.937Z,49.97
2018-11-29T08:10:19.121Z,53.27
2018-11-29T08:12:48.315Z,51.90
2018-11-29T08:15:20.166Z,50.57
2018-11-29T08:17:49.254Z,54.73
2018-11-29T08:20:20.634Z,53.60
2018-11-29T08:22:49.532Z,57.73
2018-11-29T08:25:18.466Z,56.17
2018-11-29T08:27:47.410Z,54.37
2018-11-29T08:30:16.913Z,53.43
2018-11-29T08:32:45.809Z,54.97
2018-11-29T08:35:15.713Z,51.03
2018-11-29T08:37:46.153Z,51.07
2018-11-29T08:40:19.877Z,58.17
2018-11-29T08:42:48.838Z,53.87
2018-11-29T08:45:17.735Z,52.23
2018-11-29T08:47:46.769Z,58.93
2018-11-29T08:50:15.920Z,51.57
2018-11-29T08:52:46.481Z,56.97
2018-11-29T08:55:17.925Z,58.23
2018-11-29T08:57:47.924Z,63.10
2018-11-29T09:00:19.311Z,52.50
2018-11-29T09:02:48.372Z,58.73
2018-11-29T09:05:17.368Z,56.30
2018-11-29T09:07:47.663Z,56.70
2018-11-29T09:10:18.575Z,60.13
2018-11-29T09:12:47.543Z,54.03
2018-11-29T09:15:17.415Z,56.30
2018-11-29T09:17:46.711Z,50.67
2018-11-29T09:20:17.999Z,55.27
2018-11-29T09:22:46.879Z,57.33
2018-11-29T09:25:17.340Z,50.10
2018-11-29T09:27:46.288Z,51.83
2018-11-29T09:30:18.590Z,59.77
2018-11-29T09:32:48.939Z,51.47
2018-11-29T09:35:19.279Z,52.47
2018-11-29T09:37:48.199Z,55.30
2018-11-29T09:40:18.122Z,55.23
2018-11-29T09:42:47.292Z,51.67
2018-11-29T09:45:24.178Z,49.50
2018-11-29T09:47:56.756Z,50.00
2018-11-29T09:50:26.369Z,50.13
2018-11-29T09:52:55.595Z,53.63
2018-11-29T09:55:24.502Z,52.60
2018-11-29T09:57:53.406Z,53.00
2018-11-29T10:00:28.044Z,49.73
2018-11-29T10:03:09.677Z,48.00
2018-11-29T10:05:39.478Z,53.40
2018-11-29T10:08:11.978Z,49.00
2018-11-29T10:10:39.477Z,53.57
2018-11-29T10:13:08.426Z,47.07
2018-11-29T10:15:37.466Z,49.47
2018-11-29T10:18:07.298Z,46.03
2018-11-29T10:20:36.131Z,47.57
2018-11-29T10:23:05.622Z,50.33
2018-11-29T10:25:36.493Z,46.13
2018-11-29T10:28:18.625Z,50.70
2018-11-29T10:30:56.188Z,49.97
2018-11-29T10:33:25.440Z,54.20
2018-11-29T10:35:59.070Z,44.27
2018-11-29T10:38:23.658Z,53.70
2018-11-29T10:40:52.575Z,50.00
2018-11-29T10:43:21.503Z,48.33
2018-11-29T10:45:50.469Z,49.90
2018-11-29T10:48:21.929Z,55.37
2018-11-29T10:50:50.910Z,49.73
2018-11-29T10:53:20.035Z,52.47
2018-11-29T10:55:48.929Z,58.47
2018-11-29T10:58:17.828Z,50.77
2018-11-29T11:00:52.299Z,52.37
2018-11-29T11:03:21.579Z,56.70
2018-11-29T11:05:52.166Z,54.47
2018-11-29T11:08:21.368Z,58.07
2018-11-29T11:10:50.620Z,49.23
2018-11-29T11:13:19.475Z,59.97
2018-11-29T11:15:48.360Z,54.10
2018-11-29T11:18:17.906Z,54.23
2018-11-29T11:20:46.817Z,53.83
2018-11-29T11:23:15.722Z,58.47
2018-11-29T11:25:44.655Z,50.20
2018-11-29T11:28:13.469Z,51.93
2018-11-29T11:30:43.872Z,49.10
2018-11-29T11:33:12.724Z,53.00
2018-11-29T11:35:41.727Z,56.93
2018-11-29T11:38:10.562Z,58.80
2018-11-29T11:40:39.449Z,50.57
2018-11-29T11:43:08.533Z,48.10
2018-11-29T11:45:37.440Z,56.00
2018-11-29T11:48:07.151Z,56.83
2018-11-29T11:50:36.978Z,49.30
2018-11-29T11:53:07.792Z,52.83
2018-11-29T11:55:37.577Z,56.10
2018-11-29T11:58:07.602Z,54.07
2018-11-29T12:00:37.165Z,54.17
2018-11-29T12:03:13.056Z,56.10
2018-11-29T12:05:42.239Z,56.13
2018-11-29T12:08:11.211Z,54.10
2018-11-29T12:10:41.970Z,49.40
2018-11-29T12:13:10.932Z,53.03
2018-11-29T12:15:39.775Z,52.87
2018-11-29T12:18:10.844Z,56.73
2018-11-29T12:20:39.816Z,43.70
2018-11-29T12:23:09.210Z,54.57
2018-11-29T12:25:38.035Z,52.57
2018-11-29T12:28:07.110Z,51.90
2018-11-29T12:30:41.225Z,47.50
2018-11-29T12:33:10.158Z,50.47
2018-11-29T12:35:39.059Z,47.67
2018-11-29T12:38:07.968Z,43.97
2018-11-29T12:40:36.797Z,46.30
2018-11-29T12:43:05.838Z,49.60
2018-11-29T12:45:35.043Z,44.77
2018-11-29T12:48:03.923Z,48.97
2018-11-29T12:50:34.399Z,46.37
2018-11-29T12:53:03.315Z,45.17
2018-11-29T12:55:32.159Z,44.13
2018-11-29T12:58:06.112Z,43.47
2018-11-29T13:00:30.071Z,45.53
2018-11-29T13:02:59.643Z,50.80
2018-11-29T13:05:29.116Z,47.10
2018-11-29T13:07:58.086Z,44.23
2018-11-29T13:10:27.971Z,42.63
2018-11-29T13:12:56.858Z,43.50
2018-11-29T13:15:31.323Z,45.20
2018-11-29T13:18:03.045Z,46.97
2018-11-29T13:20:32.731Z,44.03
2018-11-29T13:23:00.884Z,44.87
2018-11-29T13:25:29.842Z,43.90
2018-11-29T13:27:58.720Z,43.50
2018-11-29T13:30:27.570Z,43.07
2018-11-29T13:32:57.245Z,41.17
2018-11-29T13:35:31.092Z,47.37
2018-11-29T13:38:03.210Z,43.10
2018-11-29T13:40:32.132Z,41.70
2018-11-29T13:43:01.077Z,42.63
2018-11-29T13:45:29.955Z,43.47
2018-11-29T13:47:58.787Z,46.43
2018-11-29T13:50:27.798Z,41.77
2018-11-29T13:52:56.626Z,39.37
2018-11-29T13:55:25.637Z,49.47
2018-11-29T13:57:54.544Z,39.67
2018-11-29T14:00:24.108Z,38.83
2018-11-29T14:02:57.084Z,40.03
2018-11-29T14:05:26.097Z,37.77
2018-11-29T14:07:55.212Z,38.97
2018-11-29T14:10:24.844Z,40.10
2018-11-29T14:12:55.407Z,39.10
2018-11-29T14:15:26.227Z,40.10
2018-11-29T14:17:55.240Z,37.23
2018-11-29T14:20:24.253Z,40.23
2018-11-29T14:22:53.137Z,36.70
2018-11-29T14:25:22.144Z,40.03
2018-11-29T14:27:54.686Z,36.87
2018-11-29T14:30:26.982Z,37.13
2018-11-29T14:32:58.510Z,36.37
2018-11-29T14:35:27.523Z,34.93
2018-11-29T14:37:56.740Z,35.00
2018-11-29T14:40:27.545Z,32.23
2018-11-29T14:42:56.454Z,35.07
2018-11-29T14:45:26.458Z,40.07
2018-11-29T14:47:55.844Z,35.23
2018-11-29T14:50:32.040Z,35.87
2018-11-29T14:53:01.034Z,38.67
2018-11-29T14:55:29.915Z,33.10
2018-11-29T14:57:58.858Z,34.07
2018-11-29T15:00:27.778Z,35.33
2018-11-29T15:02:57.981Z,36.13
2018-11-29T15:05:29.912Z,35.10
2018-11-29T15:07:59.889Z,34.77
2018-11-29T15:10:28.802Z,36.20
2018-11-29T15:12:57.993Z,31.27
2018-11-29T15:15:26.916Z,37.83
2018-11-29T15:17:55.944Z,36.53
2018-11-29T15:20:27.304Z,36.90
2018-11-29T15:22:56.072Z,29.30
2018-11-29T15:25:24.937Z,30.43
2018-11-29T15:27:53.870Z,34.03
2018-11-29T15:30:23.509Z,37.10
2018-11-29T15:32:53.311Z,33.23
2018-11-29T15:35:23.544Z,37.07
2018-11-29T15:37:52.454Z,32.77
2018-11-29T15:40:21.509Z,36.23
2018-11-29T15:42:50.544Z,33.73
2018-11-29T15:45:22.027Z,26.80
2018-11-29T15:47:51.087Z,31.20
2018-11-29T15:50:20.022Z,31.23
2018-11-29T15:52:48.944Z,31.20
2018-11-29T15:55:20.511Z,35.13
2018-11-29T15:57:50.892Z,30.43
2018-11-29T16:00:28.146Z,30.53
2018-11-29T16:02:59.677Z,29.23
2018-11-29T16:05:28.625Z,30.90
2018-11-29T16:07:57.543Z,29.90
2018-11-29T16:10:27.279Z,29.23
2018-11-29T16:12:56.118Z,28.27
2018-11-29T16:15:25.076Z,29.20
2018-11-29T16:17:54.500Z,33.07
2018-11-29T16:20:31.321Z,28.37
2018-11-29T16:23:00.452Z,26.50
2018-11-29T16:25:29.404Z,29.30
2018-11-29T16:27:58.405Z,27.87
2018-11-29T16:30:48.605Z,25.67
2018-11-29T16:33:25.706Z,32.17
2018-11-29T16:35:55.438Z,28.00
2018-11-29T16:38:24.551Z,26.10
2018-11-29T16:40:53.485Z,27.50
2018-11-29T16:43:22.628Z,31.37
2018-11-29T16:45:51.483Z,28.60
2018-11-29T16:48:20.374Z,29.13
2018-11-29T16:50:49.387Z,31.47
2018-11-29T16:53:18.330Z,27.53
2018-11-29T16:55:47.205Z,28.50
2018-11-29T16:58:20.653Z,28.77
2018-11-29T17:00:49.569Z,27.73
2018-11-29T17:03:18.506Z,27.80
2018-11-29T17:05:47.429Z,28.20
2018-11-29T17:08:16.675Z,27.60
2018-11-29T17:10:45.532Z,25.70
2018-11-29T17:13:16.735Z,30.20
2018-11-29T17:15:45.720Z,21.50
2018-11-29T17:18:14.738Z,25.07
2018-11-29T17:20:43.653Z,23.90
2018-11-29T17:23:12.943Z,24.23
2018-11-29T17:25:42.069Z,28.17
2018-11-29T17:28:11.904Z,22.87
2018-11-29T17:30:40.758Z,23.93
2018-11-29T17:33:10.479Z,20.93
2018-11-29T17:35:46.572Z,25.27
2018-11-29T17:38:17.354Z,24.90
2018-11-29T17:40:48.273Z,23.40
2018-11-29T17:43:17.766Z,23.93
2018-11-29T17:45:47.533Z,27.20
2018-11-29T17:48:16.860Z,24.90
2018-11-29T17:50:45.803Z,24.20
2018-11-29T17:53:14.647Z,26.13
2018-11-29T17:55:43.705Z,25.13
2018-11-29T17:58:14.595Z,26.93
2018-11-29T18:00:46.081Z,26.97
2018-11-29T18:03:19.227Z,26.07
2018-11-29T18:05:48.852Z,26.87
2018-11-29T18:08:17.712Z,27.27
2018-11-29T18:10:49.939Z,24.43
2018-11-29T18:13:25.847Z,23.03
2018-11-29T18:15:54.775Z,21.37
2018-11-29T18:18:23.557Z,24.93
2018-11-29T18:20:52.526Z,24.73
2018-11-29T18:23:21.357Z,21.07
2018-11-29T18:25:50.313Z,20.33
2018-11-29T18:28:19.152Z,22.23
2018-11-29T18:30:48.001Z,25.93
2018-11-29T18:33:16.898Z,26.90
2018-11-29T18:35:45.739Z,23.97
2018-11-29T18:38:14.569Z,25.10
2018-11-29T18:40:43.469Z,21.70
2018-11-29T18:43:12.307Z,18.63
2018-11-29T18:45:41.368Z,22.47
2018-11-29T18:48:10.811Z,22.93
2018-11-29T18:50:40.303Z,21.10
2018-11-29T18:53:09.194Z,22.60
2018-11-29T18:55:38.101Z,21.20
2018-11-29T18:58:07.695Z,18.73
2018-11-29T19:00:37.467Z,22.03
2018-11-29T19:03:07.895Z,18.33
2018-11-29T19:05:36.701Z,18.20
2018-11-29T19:08:07.585Z,19.33
2018-11-29T19:10:36.505Z,20.03
2018-11-29T19:13:09.116Z,21.27
2018-11-29T19:15:38.348Z,20.87
2018-11-29T19:18:10.510Z,19.20
2018-11-29T19:20:37.666Z,17.47
2018-11-29T19:23:06.876Z,15.97
2018-11-29T19:25:36.948Z,22.27
2018-11-29T19:28:06.734Z,16.27
2018-11-29T19:30:35.927Z,14.97
2018-11-29T19:33:21.898Z,15.07
2018-11-29T19:35:52.888Z,15.33
2018-11-29T19:38:21.788Z,17.90
2018-11-29T19:40:50.664Z,18.43
2018-11-29T19:43:19.597Z,15.47
2018-11-29T19:45:48.493Z,18.20
2018-11-29T19:48:17.398Z,21.57
2018-11-29T19:50:46.324Z,23.57
2018-11-29T19:53:22.948Z,16.40
2018-11-29T19:55:54.670Z,20.77
2018-11-29T19:58:23.544Z,16.33
2018-11-29T20:00:56.075Z,17.57
2018-11-29T20:03:24.974Z,16.67
2018-11-29T20:05:53.882Z,16.33
2018-11-29T20:08:22.736Z,14.87
2018-11-29T20:10:51.635Z,17.57
2018-11-29T20:13:21.426Z,18.70
2018-11-29T20:15:52.331Z,16.60
2018-11-29T20:18:21.277Z,16.93
2018-11-29T20:20:50.538Z,15.73
2018-11-29T20:23:19.442Z,16.43
2018-11-29T20:25:48.384Z,15.60
2018-11-29T20:28:17.535Z,18.40
2018-11-29T20:30:46.596Z,19.97
2018-11-29T20:33:15.460Z,14.33
2018-11-29T20:35:44.342Z,15.83
2018-11-29T20:38:13.221Z,17.63
2018-11-29T20:40:44.655Z,24.70
2018-11-29T20:43:14.105Z,19.97
2018-11-29T20:45:53.897Z,17.30
2018-11-29T20:48:26.811Z,19.93
2018-11-29T20:50:58.176Z,15.10
2018-11-29T20:53:37.667Z,20.30
2018-11-29T20:56:11.151Z,14.77
2018-11-29T20:58:40.067Z,18.80
2018-11-29T21:01:11.164Z,16.33
2018-11-29T21:03:40.952Z,16.60
2018-11-29T21:06:12.418Z,13.97
2018-11-29T21:08:42.373Z,17.77
2018-11-29T21:11:11.896Z,14.53
2018-11-29T21:13:40.861Z,14.10
2018-11-29T21:16:09.875Z,11.80
2018-11-29T21:18:39.833Z,13.63
2018-11-29T21:21:09.577Z,14.47
2018-11-29T21:23:38.507Z,13.73
2018-11-29T21:26:08.534Z,13.30
2018-11-29T21:28:37.772Z,14.33
2018-11-29T21:31:07.425Z,16.47
2018-11-29T21:33:37.051Z,14.63
2018-11-29T21:36:06.379Z,11.17
2018-11-29T21:38:35.846Z,12.00
2018-11-29T21:41:05.837Z,12.57
2018-11-29T21:43:35.559Z,14.57
2018-11-29T21:46:04.468Z,12.27
2018-11-29T21:48:34.115Z,12.27
2018-11-29T21:51:03.148Z,13.93
2018-11-29T21:53:32.982Z,12.33
2018-11-29T21:56:02.466Z,10.97
2018-11-29T21:58:31.433Z,10.63
2018-11-29T22:01:00.403Z,14.30
2018-11-29T22:03:29.858Z,12.07
2018-11-29T22:05:58.867Z,11.80
2018-11-29T22:08:27.916Z,13.27
2018-11-29T22:10:56.835Z,12.23
2018-11-29T22:13:26.131Z,12.33
2018-11-29T22:15:55.092Z,10.77
2018-11-29T22:18:25.488Z,12.77
2018-11-29T22:20:57.195Z,11.20
2018-11-29T22:23:26.646Z,13.43
2018-11-29T22:25:57.734Z,10.90
2018-11-29T22:28:26.828Z,9.77
2018-11-29T22:30:56.351Z,11.00
2018-11-29T22:33:25.798Z,12.80
2018-11-29T22:35:54.917Z,10.80
2018-11-29T22:38:23.937Z,12.33
2018-11-29T22:40:52.931Z,12.83
2018-11-29T22:43:22.480Z,14.73
2018-11-29T22:45:51.530Z,13.20
2018-11-29T22:48:20.649Z,14.47
2018-11-29T22:50:49.638Z,13.27
2018-11-29T22:53:18.783Z,12.80
2018-11-29T22:55:47.693Z,10.43
2018-11-29T22:58:16.568Z,13.20
2018-11-29T23:00:52.623Z,11.97
2018-11-29T23:03:22.031Z,11.67
2018-11-29T23:05:50.932Z,13.53
2018-11-29T23:08:20.578Z,12.57
2018-11-29T23:10:49.451Z,10.40
2018-11-29T23:13:19.199Z,15.83
2018-11-29T23:15:48.128Z,12.30
2018-11-29T23:18:17.119Z,13.33
2018-11-29T23:20:46.009Z,12.40
2018-11-29T23:23:14.888Z,10.83
2018-11-29T23:25:44.180Z,10.80
2018-11-29T23:28:13.151Z,12.50
2018-11-29T23:30:42.393Z,12.83
2018-11-29T23:33:11.288Z,11.93
2018-11-29T23:35:40.191Z,11.27
2018-11-29T23:38:09.016Z,10.73
2018-11-29T23:40:38.037Z,11.30
2018-11-29T23:43:06.899Z,12.33
2018-11-29T23:45:35.804Z,11.23
2018-11-29T23:48:04.683Z,12.97
2018-11-29T23:50:33.628Z,10.97
2018-11-29T23:53:02.583Z,11.27
2018-11-29T23:55:31.695Z,10.90
2018-11-29T23:58:00.506Z,12.67
